首页
METAR-TAF:

METAR-TAF

机场 :

Quaqtaq, 魁北克, 加拿大

纬度: 61-03N, 经度: 069-38W, 海拔: 30米

当前天气观测

该预报发布于13小时和7分钟前的21:00 UTC
风速7节,风向
温度 11°C
湿度 62%
气压 1011 hPa
能見度: 24.1公里
少量云层高于2500英尺
少量云层高于16000英尺
多云层高于25000英尺

METAR: CYHA 182100Z 18007KT 15SM FEW025 FEW160 BKN250 11/04 A2984 RMK SC1AC1CI6 SC TR LAST OBS/NEXT 191200 UTC SLP110

时间: 06:07 (10:07 UTC)

预报

该预报发布于18小时和28分钟前的15:39 UTC
预报有效从18日的 15点(UTC)到 18日的 21点(UTC)
风速20节,风向西北,有时为30节阵风
能見度: 10公里
少量云层高于1500英尺
多云层高于3000英尺
多云层高于25000英尺
短暂存在
从 18日的 15点(UTC)到 18日的 18点(UTC)
少量云层高于3000英尺
散云层高于25000英尺
成为
从 18日的 16点(UTC)到 18日的 18点(UTC)
风速15节,风向西转西北
从 18日的 1800点(UTC)
风速15节,风向西转西北
能見度: 10公里
少量云层高于25000英尺
成为
从 18日的 19点(UTC)到 18日的 21点(UTC)
风速12节,风向南转西南

TAF: CYHA 181539Z 1815/1821 31020G30KT P6SM FEW015 BKN030 BKN250 TEMPO 1815/1818 FEW030 SCT250 BECMG 1816/1818 29015KT FM181800 29015KT P6SM FEW250 BECMG 1819/1821 20012KT RMK NXT FCST BY 191400Z

超过4000个机场的气象观测和天气预报(METAR&TAF报告)。

可查询的气象台以黄色和红色小点在地图上表示。

将鼠标移到小点上方,可查看气象台名称。

然后点击查看天气观测和预报。

如需切换地图:点击带黑十字的绿色按钮放大地图;点击带横线的绿色按钮缩小地图;或者点击绿色箭头查看邻近地区的地图。


METAR-TAF: